sensor_id;sensor_type;location;lat;lon;timestamp;P1;durP1;ratioP1;P2;durP2;ratioP2
60312;SDS011;46158;52.850;6.970;2023-11-21T00:01:57;14.70;;;4.35;;
60312;SDS011;46158;52.850;6.970;2023-11-21T00:04:23;14.85;;;4.50;;
60312;SDS011;46158;52.850;6.970;2023-11-21T00:06:49;14.05;;;4.50;;
60312;SDS011;46158;52.850;6.970;2023-11-21T00:09:15;16.20;;;5.07;;
60312;SDS011;46158;52.850;6.970;2023-11-21T00:11:42;15.57;;;4.28;;
60312;SDS011;46158;52.850;6.970;2023-11-21T00:14:09;16.30;;;4.40;;
60312;SDS011;46158;52.850;6.970;2023-11-21T00:16:39;14.45;;;4.68;;
60312;SDS011;46158;52.850;6.970;2023-11-21T00:19:05;13.35;;;4.38;;
60312;SDS011;46158;52.850;6.970;2023-11-21T00:21:31;14.52;;;4.70;;
60312;SDS011;46158;52.850;6.970;2023-11-21T00:23:57;15.45;;;4.80;;
60312;SDS011;46158;52.850;6.970;2023-11-21T00:26:22;15.82;;;4.47;;
60312;SDS011;46158;52.850;6.970;2023-11-21T00:28:49;15.25;;;4.70;;
60312;SDS011;46158;52.850;6.970;2023-11-21T00:31:17;14.20;;;4.68;;
60312;SDS011;46158;52.850;6.970;2023-11-21T00:33:43;14.95;;;4.45;;
60312;SDS011;46158;52.850;6.970;2023-11-21T00:36:09;16.05;;;4.80;;
60312;SDS011;46158;52.850;6.970;2023-11-21T00:38:35;14.88;;;5.13;;
60312;SDS011;46158;52.850;6.970;2023-11-21T00:41:01;15.50;;;4.60;;
60312;SDS011;46158;52.850;6.970;2023-11-21T00:43:28;15.07;;;4.80;;
60312;SDS011;46158;52.850;6.970;2023-11-21T00:45:53;15.63;;;4.35;;
60312;SDS011;46158;52.850;6.970;2023-11-21T00:48:19;15.25;;;4.85;;
60312;SDS011;46158;52.850;6.970;2023-11-21T00:50:45;15.30;;;4.57;;
60312;SDS011;46158;52.850;6.970;2023-11-21T00:53:11;14.88;;;4.45;;
60312;SDS011;46158;52.850;6.970;2023-11-21T00:55:37;15.98;;;4.80;;
60312;SDS011;46158;52.850;6.970;2023-11-21T00:58:05;16.23;;;4.68;;
60312;SDS011;46158;52.850;6.970;2023-11-21T01:00:32;14.55;;;4.63;;
60312;SDS011;46158;52.850;6.970;2023-11-21T01:02:58;17.10;;;4.78;;
60312;SDS011;46158;52.850;6.970;2023-11-21T01:05:24;13.80;;;4.65;;
60312;SDS011;46158;52.850;6.970;2023-11-21T01:42:45;14.52;;;4.60;;
60312;SDS011;46158;52.850;6.970;2023-11-21T01:45:12;13.90;;;4.82;;
60312;SDS011;46158;52.850;6.970;2023-11-21T01:47:38;15.77;;;4.55;;
60312;SDS011;46158;52.850;6.970;2023-11-21T01:50:04;17.10;;;4.68;;
60312;SDS011;46158;52.850;6.970;2023-11-21T01:52:33;16.17;;;4.57;;
60312;SDS011;46158;52.850;6.970;2023-11-21T02:18:35;16.42;;;5.18;;
60312;SDS011;46158;52.850;6.970;2023-11-21T02:21:03;16.60;;;4.93;;
60312;SDS011;46158;52.850;6.970;2023-11-21T02:23:29;15.57;;;5.35;;
60312;SDS011;46158;52.850;6.970;2023-11-21T02:25:55;14.68;;;4.45;;
60312;SDS011;46158;52.850;6.970;2023-11-21T02:28:21;15.18;;;4.60;;
60312;SDS011;46158;52.850;6.970;2023-11-21T02:30:51;14.98;;;5.10;;
60312;SDS011;46158;52.850;6.970;2023-11-21T02:33:21;13.05;;;4.70;;
60312;SDS011;46158;52.850;6.970;2023-11-21T02:35:47;16.67;;;5.30;;
60312;SDS011;46158;52.850;6.970;2023-11-21T02:38:13;16.15;;;5.10;;
60312;SDS011;46158;52.850;6.970;2023-11-21T02:40:40;13.38;;;4.93;;
60312;SDS011;46158;52.850;6.970;2023-11-21T02:43:07;15.05;;;4.80;;
60312;SDS011;46158;52.850;6.970;2023-11-21T02:45:32;14.48;;;4.85;;
60312;SDS011;46158;52.850;6.970;2023-11-21T02:47:58;15.30;;;4.80;;
60312;SDS011;46158;52.850;6.970;2023-11-21T02:50:24;14.75;;;4.47;;
60312;SDS011;46158;52.850;6.970;2023-11-21T02:52:50;15.88;;;5.07;;
60312;SDS011;46158;52.850;6.970;2023-11-21T02:55:16;14.73;;;5.00;;
60312;SDS011;46158;52.850;6.970;2023-11-21T02:57:41;13.95;;;4.57;;
60312;SDS011;46158;52.850;6.970;2023-11-21T03:00:07;12.20;;;4.30;;
60312;SDS011;46158;52.850;6.970;2023-11-21T03:02:34;13.88;;;4.65;;
60312;SDS011;46158;52.850;6.970;2023-11-21T03:05:04;15.80;;;4.82;;
60312;SDS011;46158;52.850;6.970;2023-11-21T03:07:31;14.30;;;4.60;;
60312;SDS011;46158;52.850;6.970;2023-11-21T03:09:57;16.10;;;5.10;;
60312;SDS011;46158;52.850;6.970;2023-11-21T03:12:22;14.40;;;4.75;;
60312;SDS011;46158;52.850;6.970;2023-11-21T03:14:48;14.60;;;4.63;;
60312;SDS011;46158;52.850;6.970;2023-11-21T03:17:14;12.57;;;4.60;;
60312;SDS011;46158;52.850;6.970;2023-11-21T03:19:41;16.98;;;5.40;;
60312;SDS011;46158;52.850;6.970;2023-11-21T03:22:07;15.43;;;5.22;;
60312;SDS011;46158;52.850;6.970;2023-11-21T03:24:33;16.05;;;4.90;;
60312;SDS011;46158;52.850;6.970;2023-11-21T03:26:59;14.13;;;4.60;;
60312;SDS011;46158;52.850;6.970;2023-11-21T03:29:25;16.35;;;4.90;;
60312;SDS011;46158;52.850;6.970;2023-11-21T03:31:51;13.63;;;4.72;;
60312;SDS011;46158;52.850;6.970;2023-11-21T03:34:23;14.93;;;4.47;;
60312;SDS011;46158;52.850;6.970;2023-11-21T03:36:51;13.77;;;4.65;;
60312;SDS011;46158;52.850;6.970;2023-11-21T03:39:17;15.98;;;5.30;;
60312;SDS011;46158;52.850;6.970;2023-11-21T03:41:44;13.80;;;4.82;;
60312;SDS011;46158;52.850;6.970;2023-11-21T03:44:10;15.00;;;5.20;;
60312;SDS011;46158;52.850;6.970;2023-11-21T03:46:35;15.40;;;4.72;;
60312;SDS011;46158;52.850;6.970;2023-11-21T03:49:01;15.02;;;4.63;;
60312;SDS011;46158;52.850;6.970;2023-11-21T03:51:27;16.25;;;4.88;;
60312;SDS011;46158;52.850;6.970;2023-11-21T03:53:53;16.40;;;5.10;;
60312;SDS011;46158;52.850;6.970;2023-11-21T03:56:19;15.18;;;4.85;;
60312;SDS011;46158;52.850;6.970;2023-11-21T03:58:46;14.57;;;4.68;;
60312;SDS011;46158;52.850;6.970;2023-11-21T04:01:23;13.27;;;4.65;;
60312;SDS011;46158;52.850;6.970;2023-11-21T04:03:49;14.48;;;4.88;;
60312;SDS011;46158;52.850;6.970;2023-11-21T04:06:16;13.65;;;4.70;;
60312;SDS011;46158;52.850;6.970;2023-11-21T04:08:42;14.68;;;5.05;;
60312;SDS011;46158;52.850;6.970;2023-11-21T04:11:09;14.57;;;4.53;;
60312;SDS011;46158;52.850;6.970;2023-11-21T04:13:37;15.88;;;4.90;;
60312;SDS011;46158;52.850;6.970;2023-11-21T04:16:03;17.15;;;5.18;;
60312;SDS011;46158;52.850;6.970;2023-11-21T04:18:30;13.57;;;4.60;;
60312;SDS011;46158;52.850;6.970;2023-11-21T04:20:56;16.63;;;4.97;;
60312;SDS011;46158;52.850;6.970;2023-11-21T04:23:22;17.10;;;5.43;;
60312;SDS011;46158;52.850;6.970;2023-11-21T04:25:47;14.63;;;4.70;;
60312;SDS011;46158;52.850;6.970;2023-11-21T04:28:13;15.23;;;4.75;;
60312;SDS011;46158;52.850;6.970;2023-11-21T04:30:39;15.02;;;4.68;;
60312;SDS011;46158;52.850;6.970;2023-11-21T04:33:04;14.60;;;4.85;;
60312;SDS011;46158;52.850;6.970;2023-11-21T04:35:30;16.38;;;5.43;;
60312;SDS011;46158;52.850;6.970;2023-11-21T04:37:56;15.90;;;4.82;;
60312;SDS011;46158;52.850;6.970;2023-11-21T04:40:22;15.07;;;5.00;;
60312;SDS011;46158;52.850;6.970;2023-11-21T04:42:48;13.95;;;4.70;;
60312;SDS011;46158;52.850;6.970;2023-11-21T04:45:13;15.10;;;4.60;;
60312;SDS011;46158;52.850;6.970;2023-11-21T04:47:39;14.75;;;4.80;;
60312;SDS011;46158;52.850;6.970;2023-11-21T04:50:05;16.48;;;4.60;;
60312;SDS011;46158;52.850;6.970;2023-11-21T04:52:31;15.52;;;4.75;;
60312;SDS011;46158;52.850;6.970;2023-11-21T04:54:58;12.68;;;4.53;;
60312;SDS011;46158;52.850;6.970;2023-11-21T04:57:26;13.27;;;4.65;;
60312;SDS011;46158;52.850;6.970;2023-11-21T04:59:53;12.88;;;4.40;;
60312;SDS011;46158;52.850;6.970;2023-11-21T05:02:19;13.75;;;4.63;;
60312;SDS011;46158;52.850;6.970;2023-11-21T05:04:46;12.65;;;4.05;;
60312;SDS011;46158;52.850;6.970;2023-11-21T05:07:12;14.63;;;4.50;;
60312;SDS011;46158;52.850;6.970;2023-11-21T05:09:41;14.63;;;5.20;;
60312;SDS011;46158;52.850;6.970;2023-11-21T05:12:11;12.52;;;4.30;;
60312;SDS011;46158;52.850;6.970;2023-11-21T05:14:38;15.48;;;5.10;;
60312;SDS011;46158;52.850;6.970;2023-11-21T05:17:03;14.52;;;4.63;;
60312;SDS011;46158;52.850;6.970;2023-11-21T05:19:29;13.70;;;4.70;;
60312;SDS011;46158;52.850;6.970;2023-11-21T05:21:55;14.23;;;4.80;;
60312;SDS011;46158;52.850;6.970;2023-11-21T05:24:21;13.60;;;4.68;;
60312;SDS011;46158;52.850;6.970;2023-11-21T05:26:46;16.20;;;5.00;;
60312;SDS011;46158;52.850;6.970;2023-11-21T05:29:12;13.50;;;4.38;;
60312;SDS011;46158;52.850;6.970;2023-11-21T05:31:38;12.60;;;4.60;;
60312;SDS011;46158;52.850;6.970;2023-11-21T05:34:03;15.85;;;5.35;;
60312;SDS011;46158;52.850;6.970;2023-11-21T05:36:30;14.05;;;4.65;;
60312;SDS011;46158;52.850;6.970;2023-11-21T05:38:56;14.50;;;4.60;;
60312;SDS011;46158;52.850;6.970;2023-11-21T05:41:22;14.65;;;4.93;;
60312;SDS011;46158;52.850;6.970;2023-11-21T05:43:48;13.23;;;4.55;;
60312;SDS011;46158;52.850;6.970;2023-11-21T05:46:14;15.77;;;5.15;;
60312;SDS011;46158;52.850;6.970;2023-11-21T05:48:39;15.30;;;4.78;;
60312;SDS011;46158;52.850;6.970;2023-11-21T05:51:06;14.98;;;4.88;;
60312;SDS011;46158;52.850;6.970;2023-11-21T05:53:33;17.25;;;5.55;;
60312;SDS011;46158;52.850;6.970;2023-11-21T05:55:59;15.63;;;5.07;;
60312;SDS011;46158;52.850;6.970;2023-11-21T05:58:25;15.52;;;5.30;;
60312;SDS011;46158;52.850;6.970;2023-11-21T06:00:50;14.02;;;4.45;;
60312;SDS011;46158;52.850;6.970;2023-11-21T06:03:16;14.02;;;4.78;;
60312;SDS011;46158;52.850;6.970;2023-11-21T06:05:42;15.55;;;5.03;;
60312;SDS011;46158;52.850;6.970;2023-11-21T06:08:08;19.13;;;5.53;;
60312;SDS011;46158;52.850;6.970;2023-11-21T06:10:34;15.20;;;4.88;;
60312;SDS011;46158;52.850;6.970;2023-11-21T06:13:00;15.70;;;4.80;;
60312;SDS011;46158;52.850;6.970;2023-11-21T06:15:25;15.10;;;5.10;;
60312;SDS011;46158;52.850;6.970;2023-11-21T06:17:51;15.05;;;5.10;;
60312;SDS011;46158;52.850;6.970;2023-11-21T06:20:17;16.40;;;5.05;;
60312;SDS011;46158;52.850;6.970;2023-11-21T06:22:47;15.77;;;5.18;;
60312;SDS011;46158;52.850;6.970;2023-11-21T06:25:14;14.23;;;4.50;;
60312;SDS011;46158;52.850;6.970;2023-11-21T06:30:06;14.85;;;5.07;;
60312;SDS011;46158;52.850;6.970;2023-11-21T06:32:34;15.02;;;5.05;;
60312;SDS011;46158;52.850;6.970;2023-11-21T06:37:30;15.93;;;4.68;;
60312;SDS011;46158;52.850;6.970;2023-11-21T06:39:57;17.58;;;5.03;;
60312;SDS011;46158;52.850;6.970;2023-11-21T06:42:23;17.27;;;5.35;;
60312;SDS011;46158;52.850;6.970;2023-11-21T06:44:53;13.13;;;4.80;;
60312;SDS011;46158;52.850;6.970;2023-11-21T06:47:22;17.42;;;5.10;;
60312;SDS011;46158;52.850;6.970;2023-11-21T06:49:51;15.68;;;5.15;;
60312;SDS011;46158;52.850;6.970;2023-11-21T06:52:18;14.93;;;5.20;;
60312;SDS011;46158;52.850;6.970;2023-11-21T06:54:44;14.77;;;5.15;;
60312;SDS011;46158;52.850;6.970;2023-11-21T06:57:10;16.38;;;5.47;;
60312;SDS011;46158;52.850;6.970;2023-11-21T06:59:38;16.13;;;5.32;;
60312;SDS011;46158;52.850;6.970;2023-11-21T07:02:04;16.20;;;5.57;;
60312;SDS011;46158;52.850;6.970;2023-11-21T07:04:33;17.50;;;5.57;;
60312;SDS011;46158;52.850;6.970;2023-11-21T07:06:59;14.68;;;5.00;;
60312;SDS011;46158;52.850;6.970;2023-11-21T07:09:25;14.95;;;4.95;;
60312;SDS011;46158;52.850;6.970;2023-11-21T07:11:51;16.65;;;5.28;;
60312;SDS011;46158;52.850;6.970;2023-11-21T07:14:17;15.27;;;5.38;;
60312;SDS011;46158;52.850;6.970;2023-11-21T07:16:44;14.35;;;4.93;;
60312;SDS011;46158;52.850;6.970;2023-11-21T07:19:11;13.93;;;4.75;;
60312;SDS011;46158;52.850;6.970;2023-11-21T07:21:37;14.35;;;5.25;;
60312;SDS011;46158;52.850;6.970;2023-11-21T07:24:04;15.88;;;5.40;;
60312;SDS011;46158;52.850;6.970;2023-11-21T07:26:31;15.48;;;5.35;;
60312;SDS011;46158;52.850;6.970;2023-11-21T07:28:58;16.27;;;5.22;;
60312;SDS011;46158;52.850;6.970;2023-11-21T07:31:24;16.85;;;5.18;;
60312;SDS011;46158;52.850;6.970;2023-11-21T07:33:50;14.35;;;5.18;;
60312;SDS011;46158;52.850;6.970;2023-11-21T07:36:16;14.57;;;5.25;;
60312;SDS011;46158;52.850;6.970;2023-11-21T07:38:48;16.10;;;4.97;;
60312;SDS011;46158;52.850;6.970;2023-11-21T07:41:14;15.50;;;5.20;;
60312;SDS011;46158;52.850;6.970;2023-11-21T07:43:43;15.93;;;5.40;;
60312;SDS011;46158;52.850;6.970;2023-11-21T07:46:10;16.45;;;5.65;;
60312;SDS011;46158;52.850;6.970;2023-11-21T07:48:40;16.27;;;5.30;;
60312;SDS011;46158;52.850;6.970;2023-11-21T07:51:07;17.35;;;5.63;;
60312;SDS011;46158;52.850;6.970;2023-11-21T07:53:33;14.63;;;4.78;;
60312;SDS011;46158;52.850;6.970;2023-11-21T07:56:06;16.08;;;5.22;;
60312;SDS011;46158;52.850;6.970;2023-11-21T07:58:35;17.20;;;5.38;;
60312;SDS011;46158;52.850;6.970;2023-11-21T08:01:02;16.52;;;5.00;;
60312;SDS011;46158;52.850;6.970;2023-11-21T08:03:28;15.52;;;5.10;;
60312;SDS011;46158;52.850;6.970;2023-11-21T08:05:57;16.08;;;5.07;;
60312;SDS011;46158;52.850;6.970;2023-11-21T08:08:23;12.63;;;4.60;;
60312;SDS011;46158;52.850;6.970;2023-11-21T08:10:49;15.18;;;5.20;;
60312;SDS011;46158;52.850;6.970;2023-11-21T08:13:24;15.98;;;4.78;;
60312;SDS011;46158;52.850;6.970;2023-11-21T08:15:54;14.15;;;4.82;;
60312;SDS011;46158;52.850;6.970;2023-11-21T08:18:21;13.52;;;4.68;;
60312;SDS011;46158;52.850;6.970;2023-11-21T08:20:47;15.43;;;4.88;;
60312;SDS011;46158;52.850;6.970;2023-11-21T08:23:16;15.27;;;4.88;;
60312;SDS011;46158;52.850;6.970;2023-11-21T08:25:43;15.10;;;4.85;;
60312;SDS011;46158;52.850;6.970;2023-11-21T08:28:09;15.82;;;5.35;;
60312;SDS011;46158;52.850;6.970;2023-11-21T08:30:35;15.77;;;5.05;;
60312;SDS011;46158;52.850;6.970;2023-11-21T08:33:00;15.52;;;4.70;;
60312;SDS011;46158;52.850;6.970;2023-11-21T08:35:28;14.93;;;5.40;;
60312;SDS011;46158;52.850;6.970;2023-11-21T08:37:53;15.82;;;4.88;;
60312;SDS011;46158;52.850;6.970;2023-11-21T08:40:20;15.75;;;5.00;;
60312;SDS011;46158;52.850;6.970;2023-11-21T08:42:46;15.55;;;5.00;;
60312;SDS011;46158;52.850;6.970;2023-11-21T08:45:13;15.80;;;5.18;;
60312;SDS011;46158;52.850;6.970;2023-11-21T08:47:42;16.45;;;5.10;;
60312;SDS011;46158;52.850;6.970;2023-11-21T08:50:09;15.55;;;5.18;;
60312;SDS011;46158;52.850;6.970;2023-11-21T08:52:37;16.52;;;5.30;;
60312;SDS011;46158;52.850;6.970;2023-11-21T08:55:06;16.73;;;5.00;;
60312;SDS011;46158;52.850;6.970;2023-11-21T08:57:37;15.73;;;4.90;;
60312;SDS011;46158;52.850;6.970;2023-11-21T09:00:03;16.23;;;5.10;;
60312;SDS011;46158;52.850;6.970;2023-11-21T09:02:32;16.80;;;5.30;;
60312;SDS011;46158;52.850;6.970;2023-11-21T09:05:02;15.68;;;5.22;;
60312;SDS011;46158;52.850;6.970;2023-11-21T09:07:29;17.27;;;5.03;;
60312;SDS011;46158;52.850;6.970;2023-11-21T09:09:55;16.33;;;5.10;;
60312;SDS011;46158;52.850;6.970;2023-11-21T09:12:21;17.05;;;5.28;;
60312;SDS011;46158;52.850;6.970;2023-11-21T09:14:49;16.08;;;5.30;;
60312;SDS011;46158;52.850;6.970;2023-11-21T09:17:15;15.75;;;5.45;;
60312;SDS011;46158;52.850;6.970;2023-11-21T09:19:40;15.63;;;5.13;;
60312;SDS011;46158;52.850;6.970;2023-11-21T09:22:06;16.88;;;5.25;;
60312;SDS011;46158;52.850;6.970;2023-11-21T09:24:33;17.08;;;5.43;;
60312;SDS011;46158;52.850;6.970;2023-11-21T09:26:59;16.67;;;5.53;;
60312;SDS011;46158;52.850;6.970;2023-11-21T09:29:27;16.17;;;4.90;;
60312;SDS011;46158;52.850;6.970;2023-11-21T09:31:54;15.38;;;5.25;;
60312;SDS011;46158;52.850;6.970;2023-11-21T09:34:20;17.60;;;5.45;;
60312;SDS011;46158;52.850;6.970;2023-11-21T09:36:46;14.40;;;4.95;;
60312;SDS011;46158;52.850;6.970;2023-11-21T09:39:12;17.08;;;5.38;;
60312;SDS011;46158;52.850;6.970;2023-11-21T09:41:43;16.63;;;5.50;;
60312;SDS011;46158;52.850;6.970;2023-11-21T09:47:14;17.60;;;5.57;;
60312;SDS011;46158;52.850;6.970;2023-11-21T09:49:41;16.23;;;4.97;;
60312;SDS011;46158;52.850;6.970;2023-11-21T09:52:13;16.38;;;5.13;;
60312;SDS011;46158;52.850;6.970;2023-11-21T09:54:43;16.45;;;5.38;;
60312;SDS011;46158;52.850;6.970;2023-11-21T09:57:09;14.68;;;4.90;;
60312;SDS011;46158;52.850;6.970;2023-11-21T09:59:36;15.50;;;5.30;;
60312;SDS011;46158;52.850;6.970;2023-11-21T10:02:02;14.93;;;5.30;;
60312;SDS011;46158;52.850;6.970;2023-11-21T10:04:31;16.73;;;5.57;;
60312;SDS011;46158;52.850;6.970;2023-11-21T10:06:56;15.35;;;5.32;;
60312;SDS011;46158;52.850;6.970;2023-11-21T10:09:23;16.17;;;5.10;;
60312;SDS011;46158;52.850;6.970;2023-11-21T10:11:52;16.40;;;5.83;;
60312;SDS011;46158;52.850;6.970;2023-11-21T10:14:18;15.82;;;5.28;;
60312;SDS011;46158;52.850;6.970;2023-11-21T10:16:46;15.52;;;5.38;;
60312;SDS011;46158;52.850;6.970;2023-11-21T10:19:13;16.23;;;5.55;;
60312;SDS011;46158;52.850;6.970;2023-11-21T10:21:41;14.00;;;4.93;;
60312;SDS011;46158;52.850;6.970;2023-11-21T10:24:07;16.42;;;5.38;;
60312;SDS011;46158;52.850;6.970;2023-11-21T10:26:33;15.93;;;4.97;;
60312;SDS011;46158;52.850;6.970;2023-11-21T10:28:59;14.15;;;5.00;;
60312;SDS011;46158;52.850;6.970;2023-11-21T10:31:32;14.85;;;4.90;;
60312;SDS011;46158;52.850;6.970;2023-11-21T10:36:43;14.70;;;5.00;;
60312;SDS011;46158;52.850;6.970;2023-11-21T10:39:09;14.20;;;5.07;;
60312;SDS011;46158;52.850;6.970;2023-11-21T10:41:47;15.95;;;5.40;;
60312;SDS011;46158;52.850;6.970;2023-11-21T10:44:14;14.15;;;4.80;;
60312;SDS011;46158;52.850;6.970;2023-11-21T10:46:55;13.93;;;4.80;;
60312;SDS011;46158;52.850;6.970;2023-11-21T10:49:21;16.65;;;5.38;;
60312;SDS011;46158;52.850;6.970;2023-11-21T10:51:49;14.98;;;4.75;;
60312;SDS011;46158;52.850;6.970;2023-11-21T10:54:18;14.07;;;5.13;;
60312;SDS011;46158;52.850;6.970;2023-11-21T10:56:45;13.45;;;4.60;;
60312;SDS011;46158;52.850;6.970;2023-11-21T10:59:17;14.50;;;4.90;;
60312;SDS011;46158;52.850;6.970;2023-11-21T11:01:45;15.98;;;5.00;;
60312;SDS011;46158;52.850;6.970;2023-11-21T11:04:14;14.60;;;4.80;;
60312;SDS011;46158;52.850;6.970;2023-11-21T11:06:43;13.60;;;4.85;;
60312;SDS011;46158;52.850;6.970;2023-11-21T11:09:12;13.32;;;4.65;;
60312;SDS011;46158;52.850;6.970;2023-11-21T11:11:39;14.07;;;4.53;;
60312;SDS011;46158;52.850;6.970;2023-11-21T11:14:07;13.23;;;4.53;;
60312;SDS011;46158;52.850;6.970;2023-11-21T11:16:36;14.05;;;4.82;;
60312;SDS011;46158;52.850;6.970;2023-11-21T11:19:04;13.40;;;4.50;;
60312;SDS011;46158;52.850;6.970;2023-11-21T11:33:33;11.75;;;4.20;;
60312;SDS011;46158;52.850;6.970;2023-11-21T11:38:45;11.68;;;4.05;;
60312;SDS011;46158;52.850;6.970;2023-11-21T11:41:11;13.52;;;4.50;;
60312;SDS011;46158;52.850;6.970;2023-11-21T11:43:37;14.60;;;4.40;;
60312;SDS011;46158;52.850;6.970;2023-11-21T11:46:10;11.13;;;4.28;;
60312;SDS011;46158;52.850;6.970;2023-11-21T11:48:38;10.23;;;3.92;;
60312;SDS011;46158;52.850;6.970;2023-11-21T11:51:11;9.93;;;3.85;;
60312;SDS011;46158;52.850;6.970;2023-11-21T11:53:44;11.77;;;4.05;;
60312;SDS011;46158;52.850;6.970;2023-11-21T11:56:27;11.63;;;4.10;;
60312;SDS011;46158;52.850;6.970;2023-11-21T11:59:00;10.98;;;4.05;;
60312;SDS011;46158;52.850;6.970;2023-11-21T12:01:27;10.50;;;4.28;;
60312;SDS011;46158;52.850;6.970;2023-11-21T12:06:56;11.88;;;4.20;;
60312;SDS011;46158;52.850;6.970;2023-11-21T12:09:25;11.33;;;3.93;;
60312;SDS011;46158;52.850;6.970;2023-11-21T12:11:51;13.00;;;4.40;;
60312;SDS011;46158;52.850;6.970;2023-11-21T12:14:18;10.40;;;3.97;;
60312;SDS011;46158;52.850;6.970;2023-11-21T12:16:44;10.45;;;4.05;;
60312;SDS011;46158;52.850;6.970;2023-11-21T12:19:11;11.80;;;4.07;;
60312;SDS011;46158;52.850;6.970;2023-11-21T12:21:40;12.02;;;4.05;;
60312;SDS011;46158;52.850;6.970;2023-11-21T12:24:13;11.48;;;4.05;;
60312;SDS011;46158;52.850;6.970;2023-11-21T12:26:41;9.50;;;3.70;;
60312;SDS011;46158;52.850;6.970;2023-11-21T12:29:07;9.45;;;3.78;;
60312;SDS011;46158;52.850;6.970;2023-11-21T12:31:34;10.93;;;3.90;;
60312;SDS011;46158;52.850;6.970;2023-11-21T12:34:00;10.27;;;4.03;;
60312;SDS011;46158;52.850;6.970;2023-11-21T12:36:26;10.35;;;3.90;;
60312;SDS011;46158;52.850;6.970;2023-11-21T12:38:54;11.48;;;3.80;;
60312;SDS011;46158;52.850;6.970;2023-11-21T12:41:20;10.32;;;4.10;;
60312;SDS011;46158;52.850;6.970;2023-11-21T12:43:46;10.00;;;3.90;;
60312;SDS011;46158;52.850;6.970;2023-11-21T12:46:12;9.60;;;3.85;;
60312;SDS011;46158;52.850;6.970;2023-11-21T12:48:45;9.57;;;3.60;;
60312;SDS011;46158;52.850;6.970;2023-11-21T12:51:12;11.32;;;3.95;;
60312;SDS011;46158;52.850;6.970;2023-11-21T12:53:41;10.65;;;4.10;;
60312;SDS011;46158;52.850;6.970;2023-11-21T12:56:09;11.88;;;4.07;;
60312;SDS011;46158;52.850;6.970;2023-11-21T12:58:36;11.45;;;4.35;;
60312;SDS011;46158;52.850;6.970;2023-11-21T13:01:06;10.70;;;4.10;;
60312;SDS011;46158;52.850;6.970;2023-11-21T13:03:40;10.85;;;4.10;;
60312;SDS011;46158;52.850;6.970;2023-11-21T13:06:06;10.52;;;3.90;;
60312;SDS011;46158;52.850;6.970;2023-11-21T13:08:32;10.48;;;3.88;;
60312;SDS011;46158;52.850;6.970;2023-11-21T13:10:59;9.68;;;3.47;;
60312;SDS011;46158;52.850;6.970;2023-11-21T13:13:26;9.57;;;3.72;;
60312;SDS011;46158;52.850;6.970;2023-11-21T13:15:54;11.20;;;3.83;;
60312;SDS011;46158;52.850;6.970;2023-11-21T13:18:29;8.25;;;3.63;;
60312;SDS011;46158;52.850;6.970;2023-11-21T13:20:59;7.75;;;3.33;;
60312;SDS011;46158;52.850;6.970;2023-11-21T13:23:28;10.60;;;3.70;;
60312;SDS011;46158;52.850;6.970;2023-11-21T13:25:54;10.10;;;3.53;;
60312;SDS011;46158;52.850;6.970;2023-11-21T13:28:20;8.70;;;3.70;;
60312;SDS011;46158;52.850;6.970;2023-11-21T13:30:48;10.35;;;3.53;;
60312;SDS011;46158;52.850;6.970;2023-11-21T13:33:17;9.27;;;3.92;;
60312;SDS011;46158;52.850;6.970;2023-11-21T13:35:46;9.18;;;3.70;;
60312;SDS011;46158;52.850;6.970;2023-11-21T13:38:15;9.85;;;3.75;;
60312;SDS011;46158;52.850;6.970;2023-11-21T13:40:42;10.82;;;3.85;;
60312;SDS011;46158;52.850;6.970;2023-11-21T13:43:15;9.85;;;3.70;;
60312;SDS011;46158;52.850;6.970;2023-11-21T13:45:46;8.63;;;3.47;;
60312;SDS011;46158;52.850;6.970;2023-11-21T13:48:15;11.95;;;3.88;;
60312;SDS011;46158;52.850;6.970;2023-11-21T13:50:44;11.85;;;3.92;;
60312;SDS011;46158;52.850;6.970;2023-11-21T13:53:23;10.00;;;3.60;;
60312;SDS011;46158;52.850;6.970;2023-11-21T13:55:52;10.18;;;3.80;;
60312;SDS011;46158;52.850;6.970;2023-11-21T13:58:25;13.02;;;4.07;;
60312;SDS011;46158;52.850;6.970;2023-11-21T14:01:09;9.73;;;3.70;;
60312;SDS011;46158;52.850;6.970;2023-11-21T14:03:55;8.77;;;3.40;;
60312;SDS011;46158;52.850;6.970;2023-11-21T14:06:47;8.93;;;3.50;;
60312;SDS011;46158;52.850;6.970;2023-11-21T14:09:17;9.63;;;3.78;;
60312;SDS011;46158;52.850;6.970;2023-11-21T14:11:54;10.52;;;3.78;;
60312;SDS011;46158;52.850;6.970;2023-11-21T14:14:25;8.77;;;3.75;;
60312;SDS011;46158;52.850;6.970;2023-11-21T14:16:53;10.57;;;3.83;;
60312;SDS011;46158;52.850;6.970;2023-11-21T14:19:20;9.18;;;3.80;;
60312;SDS011;46158;52.850;6.970;2023-11-21T14:21:47;9.27;;;3.60;;
60312;SDS011;46158;52.850;6.970;2023-11-21T14:24:14;9.27;;;3.67;;
60312;SDS011;46158;52.850;6.970;2023-11-21T14:26:43;8.05;;;3.40;;
60312;SDS011;46158;52.850;6.970;2023-11-21T14:29:11;10.73;;;3.80;;
60312;SDS011;46158;52.850;6.970;2023-11-21T14:31:39;8.20;;;3.53;;
60312;SDS011;46158;52.850;6.970;2023-11-21T14:34:06;8.20;;;3.50;;
60312;SDS011;46158;52.850;6.970;2023-11-21T14:36:37;11.02;;;3.75;;
60312;SDS011;46158;52.850;6.970;2023-11-21T14:39:04;9.13;;;3.47;;
60312;SDS011;46158;52.850;6.970;2023-11-21T14:41:36;7.88;;;3.50;;
60312;SDS011;46158;52.850;6.970;2023-11-21T14:44:03;9.25;;;3.67;;
60312;SDS011;46158;52.850;6.970;2023-11-21T14:46:32;9.88;;;3.80;;
60312;SDS011;46158;52.850;6.970;2023-11-21T14:49:00;8.70;;;3.67;;
60312;SDS011;46158;52.850;6.970;2023-11-21T14:51:44;8.02;;;3.65;;
60312;SDS011;46158;52.850;6.970;2023-11-21T14:54:36;10.48;;;3.60;;
60312;SDS011;46158;52.850;6.970;2023-11-21T14:57:11;10.18;;;3.80;;
60312;SDS011;46158;52.850;6.970;2023-11-21T14:59:47;8.25;;;3.35;;
60312;SDS011;46158;52.850;6.970;2023-11-21T15:02:19;9.52;;;3.42;;
60312;SDS011;46158;52.850;6.970;2023-11-21T15:05:05;7.88;;;3.47;;
60312;SDS011;46158;52.850;6.970;2023-11-21T15:07:31;8.65;;;3.40;;
60312;SDS011;46158;52.850;6.970;2023-11-21T15:09:57;10.93;;;3.70;;
60312;SDS011;46158;52.850;6.970;2023-11-21T15:12:22;9.20;;;3.53;;
60312;SDS011;46158;52.850;6.970;2023-11-21T15:14:51;9.05;;;3.40;;
60312;SDS011;46158;52.850;6.970;2023-11-21T15:17:19;9.32;;;3.40;;
60312;SDS011;46158;52.850;6.970;2023-11-21T15:19:56;11.75;;;3.72;;
60312;SDS011;46158;52.850;6.970;2023-11-21T15:22:21;10.32;;;3.55;;
60312;SDS011;46158;52.850;6.970;2023-11-21T15:24:47;9.13;;;3.33;;
60312;SDS011;46158;52.850;6.970;2023-11-21T15:27:14;8.18;;;3.30;;
60312;SDS011;46158;52.850;6.970;2023-11-21T15:29:43;8.93;;;3.38;;
60312;SDS011;46158;52.850;6.970;2023-11-21T15:32:09;8.00;;;3.33;;
60312;SDS011;46158;52.850;6.970;2023-11-21T15:34:36;9.60;;;3.30;;
60312;SDS011;46158;52.850;6.970;2023-11-21T15:37:02;9.05;;;3.38;;
60312;SDS011;46158;52.850;6.970;2023-11-21T15:39:29;7.65;;;3.22;;
60312;SDS011;46158;52.850;6.970;2023-11-21T15:41:56;9.40;;;3.42;;
60312;SDS011;46158;52.850;6.970;2023-11-21T15:44:22;8.40;;;3.65;;
60312;SDS011;46158;52.850;6.970;2023-11-21T15:46:50;8.02;;;3.45;;
60312;SDS011;46158;52.850;6.970;2023-11-21T15:49:16;8.27;;;3.42;;
60312;SDS011;46158;52.850;6.970;2023-11-21T15:54:20;7.93;;;3.40;;
60312;SDS011;46158;52.850;6.970;2023-11-21T15:56:47;10.50;;;3.63;;
60312;SDS011;46158;52.850;6.970;2023-11-21T15:59:13;7.88;;;3.28;;
60312;SDS011;46158;52.850;6.970;2023-11-21T16:01:39;9.50;;;3.45;;
60312;SDS011;46158;52.850;6.970;2023-11-21T16:04:13;8.18;;;3.22;;
60312;SDS011;46158;52.850;6.970;2023-11-21T16:06:42;8.25;;;3.30;;
60312;SDS011;46158;52.850;6.970;2023-11-21T16:11:48;8.80;;;3.20;;